createdAt,value
2022-12-25T00:00:08.739Z,1008.16
2022-12-25T00:01:08.520Z,1008.21
2022-12-25T00:02:08.506Z,1008.24
2022-12-25T00:03:08.569Z,1008.21
2022-12-25T00:04:08.521Z,1008.20
2022-12-25T00:05:08.444Z,1008.24
2022-12-25T00:06:08.483Z,1008.24
2022-12-25T00:07:08.421Z,1008.24
2022-12-25T00:08:08.414Z,1008.25
2022-12-25T00:09:08.425Z,1008.22
2022-12-25T00:10:08.394Z,1008.21
2022-12-25T00:11:08.376Z,1008.29
2022-12-25T00:12:08.398Z,1008.33
2022-12-25T00:13:08.352Z,1008.31
2022-12-25T00:14:08.369Z,1008.34
2022-12-25T00:15:08.330Z,1008.33
2022-12-25T00:16:08.384Z,1008.36
2022-12-25T00:17:08.332Z,1008.36
2022-12-25T00:18:08.313Z,1008.31
2022-12-25T00:19:08.316Z,1008.29
2022-12-25T00:20:08.289Z,1008.29
2022-12-25T00:21:08.289Z,1008.26
2022-12-25T00:22:08.278Z,1008.26
2022-12-25T00:23:08.244Z,1008.27
2022-12-25T00:24:08.263Z,1008.27
2022-12-25T00:25:08.222Z,1008.31
2022-12-25T00:26:08.215Z,1008.32
2022-12-25T00:27:08.198Z,1008.34
2022-12-25T00:28:08.193Z,1008.32
2022-12-25T00:29:08.195Z,1008.28
2022-12-25T00:30:08.170Z,1008.34
2022-12-25T00:31:08.212Z,1008.30
2022-12-25T00:32:08.157Z,1008.29
2022-12-25T00:33:08.135Z,1008.24
2022-12-25T00:34:08.152Z,1008.23
2022-12-25T00:35:08.115Z,1008.21
2022-12-25T00:36:08.105Z,1008.24
2022-12-25T00:37:08.088Z,1008.17
2022-12-25T00:38:08.078Z,1008.18
2022-12-25T00:39:08.087Z,1008.15
2022-12-25T00:40:08.056Z,1008.17
2022-12-25T00:41:08.058Z,1008.11
2022-12-25T00:42:08.032Z,1008.10
2022-12-25T00:43:08.035Z,1008.11
2022-12-25T00:44:08.036Z,1008.13
2022-12-25T00:45:08.002Z,1008.15
2022-12-25T00:46:08.052Z,1008.15
2022-12-25T00:47:08.045Z,1008.12
2022-12-25T00:48:07.967Z,1008.08
2022-12-25T00:49:07.981Z,1008.08
2022-12-25T00:50:07.961Z,1008.12
2022-12-25T00:51:07.940Z,1008.12
2022-12-25T00:52:07.924Z,1008.13
2022-12-25T00:53:07.913Z,1008.16
2022-12-25T00:54:07.924Z,1008.16
2022-12-25T00:55:07.887Z,1008.21
2022-12-25T00:56:07.869Z,1008.14
2022-12-25T00:57:07.871Z,1008.16
2022-12-25T00:58:07.853Z,1008.13
2022-12-25T00:59:07.863Z,1008.13
2022-12-25T01:00:07.831Z,1008.12
2022-12-25T01:01:07.870Z,1008.09
2022-12-25T01:02:08.027Z,1008.02
2022-12-25T01:03:07.905Z,1008.01
2022-12-25T01:04:07.814Z,1007.99
2022-12-25T01:05:07.781Z,1008.06
2022-12-25T01:06:07.767Z,1008.09
2022-12-25T01:07:07.760Z,1008.09
2022-12-25T01:08:07.738Z,1008.10
2022-12-25T01:09:07.756Z,1008.12
2022-12-25T01:10:07.724Z,1008.08
2022-12-25T01:11:07.716Z,1008.15
2022-12-25T01:12:07.699Z,1008.11
2022-12-25T01:13:07.696Z,1008.11
2022-12-25T01:14:07.709Z,1008.09
2022-12-25T01:15:07.664Z,1008.10
2022-12-25T01:16:07.725Z,1008.13
2022-12-25T01:17:07.648Z,1008.16
2022-12-25T01:18:08.337Z,1008.11
2022-12-25T01:19:07.624Z,1008.16
2022-12-25T01:20:07.635Z,1008.14
2022-12-25T01:21:07.634Z,1008.13
2022-12-25T01:22:07.581Z,1008.16
2022-12-25T01:23:07.578Z,1008.14
2022-12-25T01:24:07.573Z,1008.08
2022-12-25T01:25:07.582Z,1008.05
2022-12-25T01:26:07.543Z,1008.02
2022-12-25T01:27:07.536Z,1007.98
2022-12-25T01:28:07.516Z,1008.00
2022-12-25T01:29:07.517Z,1008.01
2022-12-25T01:30:07.525Z,1008.04
2022-12-25T01:31:07.485Z,1008.02
2022-12-25T01:32:07.551Z,1008.00
2022-12-25T01:33:07.465Z,1007.96
2022-12-25T01:34:07.455Z,1007.97
2022-12-25T01:35:07.466Z,1007.98
2022-12-25T01:36:07.430Z,1008.06
2022-12-25T01:37:07.423Z,1008.03
2022-12-25T01:38:07.412Z,1008.04
2022-12-25T01:39:07.396Z,1007.97
2022-12-25T01:40:07.411Z,1007.99
2022-12-25T01:41:07.387Z,1007.93
2022-12-25T01:42:07.362Z,1007.98
2022-12-25T01:43:07.354Z,1007.95
2022-12-25T01:44:07.350Z,1007.89
2022-12-25T01:45:07.353Z,1007.88
2022-12-25T01:46:07.467Z,1007.89
2022-12-25T01:47:07.330Z,1007.92
2022-12-25T01:48:07.303Z,1007.96
2022-12-25T01:49:07.292Z,1007.96
2022-12-25T01:50:07.319Z,1007.96
2022-12-25T01:51:07.281Z,1007.96
2022-12-25T01:52:07.259Z,1007.96
2022-12-25T01:53:07.246Z,1007.99
2022-12-25T01:54:07.249Z,1008.05
2022-12-25T01:55:07.244Z,1008.14
2022-12-25T01:56:07.219Z,1008.14
2022-12-25T01:57:07.193Z,1008.13
2022-12-25T01:58:07.196Z,1008.12
2022-12-25T01:59:07.179Z,1008.13
2022-12-25T02:00:07.178Z,1008.15
2022-12-25T02:01:07.213Z,1008.21
2022-12-25T02:02:07.257Z,1008.20
2022-12-25T02:03:07.168Z,1008.24
2022-12-25T02:04:07.135Z,1008.14
2022-12-25T02:05:07.133Z,1008.16
2022-12-25T02:06:07.094Z,1008.16
2022-12-25T02:07:07.089Z,1008.12
2022-12-25T02:08:07.068Z,1008.12
2022-12-25T02:09:07.066Z,1008.14
2022-12-25T02:10:07.064Z,1008.10
2022-12-25T02:11:07.041Z,1008.08
2022-12-25T02:12:07.037Z,1008.08
2022-12-25T02:13:07.029Z,1008.15
2022-12-25T02:14:07.008Z,1008.10
2022-12-25T02:15:07.031Z,1008.13
2022-12-25T02:16:07.089Z,1008.17
2022-12-25T02:17:07.098Z,1008.19
2022-12-25T02:18:06.967Z,1008.18
2022-12-25T02:19:06.947Z,1008.15
2022-12-25T02:20:06.979Z,1008.11
2022-12-25T02:21:06.924Z,1008.05
2022-12-25T02:22:06.915Z,1008.07
2022-12-25T02:23:06.902Z,1008.03
2022-12-25T02:24:06.886Z,1008.07
2022-12-25T02:25:06.909Z,1008.07
2022-12-25T02:26:06.877Z,1008.06
2022-12-25T02:27:06.861Z,1008.03
2022-12-25T02:28:06.862Z,1008.12
2022-12-25T02:29:06.838Z,1008.06
2022-12-25T02:30:06.857Z,1008.10
2022-12-25T02:31:06.812Z,1008.12
2022-12-25T02:32:06.843Z,1008.14
2022-12-25T02:33:06.787Z,1008.18
2022-12-25T02:34:06.794Z,1008.19
2022-12-25T02:35:06.797Z,1008.20
2022-12-25T02:36:06.750Z,1008.15
2022-12-25T02:37:06.749Z,1008.15
2022-12-25T02:38:06.747Z,1008.15
2022-12-25T02:39:06.739Z,1008.15
2022-12-25T02:40:06.739Z,1008.13
2022-12-25T02:41:06.720Z,1008.11
2022-12-25T02:42:06.695Z,1008.12
2022-12-25T02:43:06.680Z,1008.09
2022-12-25T02:44:06.680Z,1008.08
2022-12-25T02:45:06.671Z,1008.05
2022-12-25T02:46:06.686Z,1008.07
2022-12-25T02:47:06.633Z,1008.07
2022-12-25T02:48:06.640Z,1008.13
2022-12-25T02:49:06.610Z,1008.12
2022-12-25T02:50:06.629Z,1008.14
2022-12-25T02:51:06.587Z,1008.12
2022-12-25T02:52:06.585Z,1008.15
2022-12-25T02:53:06.571Z,1008.13
2022-12-25T02:54:06.555Z,1008.13
2022-12-25T02:55:06.572Z,1008.13
2022-12-25T02:56:06.539Z,1008.19
2022-12-25T02:57:06.522Z,1008.21
2022-12-25T02:58:06.525Z,1008.16
2022-12-25T02:59:06.499Z,1008.10
2022-12-25T03:00:06.543Z,1008.14
2022-12-25T03:01:06.544Z,1008.13
2022-12-25T03:02:06.612Z,1008.13
2022-12-25T03:03:06.555Z,1008.15
2022-12-25T03:04:06.451Z,1008.13
2022-12-25T03:05:06.475Z,1008.13
2022-12-25T03:06:06.424Z,1008.16
2022-12-25T03:07:06.420Z,1008.11
2022-12-25T03:08:06.436Z,1008.10
2022-12-25T03:09:06.384Z,1008.09
2022-12-25T03:10:06.405Z,1008.12
2022-12-25T03:11:06.373Z,1008.13
2022-12-25T03:12:06.363Z,1008.11
2022-12-25T03:13:06.342Z,1008.13
2022-12-25T03:14:06.359Z,1008.19
2022-12-25T03:15:06.357Z,1008.15
2022-12-25T03:16:06.314Z,1008.14
2022-12-25T03:17:06.364Z,1008.15
2022-12-25T03:18:06.295Z,1008.19
2022-12-25T03:19:06.271Z,1008.14
2022-12-25T03:20:06.295Z,1008.18
2022-12-25T03:21:06.248Z,1008.17
2022-12-25T03:22:06.248Z,1008.16
2022-12-25T03:23:06.231Z,1008.12
2022-12-25T03:24:06.229Z,1008.11
2022-12-25T03:25:06.238Z,1008.13
2022-12-25T03:26:06.208Z,1008.12
2022-12-25T03:27:06.188Z,1008.12
2022-12-25T03:28:06.202Z,1008.12
2022-12-25T03:29:06.164Z,1008.08
2022-12-25T03:30:06.180Z,1008.09
2022-12-25T03:31:06.218Z,1008.06
2022-12-25T03:32:06.140Z,1008.04
2022-12-25T03:33:23.385Z,1008.04
2022-12-25T03:34:06.117Z,1008.05
2022-12-25T03:35:06.609Z,1008.05
2022-12-25T03:36:06.097Z,1008.04
2022-12-25T03:37:06.088Z,1008.00
2022-12-25T03:38:06.085Z,1007.96
2022-12-25T03:39:06.053Z,1007.98
2022-12-25T03:40:06.089Z,1007.99
2022-12-25T03:41:06.026Z,1007.96
2022-12-25T03:42:06.021Z,1007.95
2022-12-25T03:43:06.007Z,1007.91
2022-12-25T03:44:06.014Z,1007.88
2022-12-25T03:45:06.029Z,1007.86
2022-12-25T03:46:06.005Z,1007.83
2022-12-25T03:47:05.988Z,1007.83
2022-12-25T03:48:05.948Z,1007.82
2022-12-25T03:49:05.949Z,1007.75
2022-12-25T03:50:05.964Z,1007.70
2022-12-25T03:51:05.921Z,1007.67
2022-12-25T03:52:05.908Z,1007.64
2022-12-25T03:53:05.896Z,1007.64
2022-12-25T03:54:05.893Z,1007.64
2022-12-25T03:55:05.907Z,1007.64
2022-12-25T03:56:05.864Z,1007.62
2022-12-25T03:57:05.877Z,1007.63
2022-12-25T03:58:05.836Z,1007.64
2022-12-25T03:59:05.830Z,1007.61
2022-12-25T04:00:05.845Z,1007.57
2022-12-25T04:01:05.829Z,1007.56
2022-12-25T04:02:06.046Z,1007.53
2022-12-25T04:03:05.854Z,1007.49
2022-12-25T04:04:05.778Z,1007.52
2022-12-25T04:05:05.793Z,1007.47
2022-12-25T04:06:05.751Z,1007.46
2022-12-25T04:07:05.750Z,1007.46
2022-12-25T04:08:05.725Z,1007.51
2022-12-25T04:09:05.719Z,1007.48
2022-12-25T04:10:05.724Z,1007.49
2022-12-25T04:11:05.697Z,1007.52
2022-12-25T04:12:05.681Z,1007.53
2022-12-25T04:13:05.678Z,1007.54
2022-12-25T04:14:05.658Z,1007.52
2022-12-25T04:15:05.673Z,1007.46
2022-12-25T04:16:05.692Z,1007.45
2022-12-25T04:17:05.635Z,1007.40
2022-12-25T04:18:05.617Z,1007.40
2022-12-25T04:19:05.609Z,1007.38
2022-12-25T04:20:05.617Z,1007.37
2022-12-25T04:21:05.608Z,1007.43
2022-12-25T04:22:05.569Z,1007.39
2022-12-25T04:23:05.581Z,1007.37
2022-12-25T04:24:05.563Z,1007.41
2022-12-25T04:25:05.561Z,1007.37
2022-12-25T04:26:05.535Z,1007.40
2022-12-25T04:27:05.521Z,1007.36
2022-12-25T04:28:05.553Z,1007.34
2022-12-25T04:29:05.491Z,1007.37
2022-12-25T04:30:05.504Z,1007.36
2022-12-25T04:31:05.505Z,1007.35
2022-12-25T04:32:05.465Z,1007.39
2022-12-25T04:33:05.450Z,1007.39
2022-12-25T04:34:05.446Z,1007.40
2022-12-25T04:35:05.451Z,1007.45
2022-12-25T04:36:05.544Z,1007.44
2022-12-25T04:37:05.422Z,1007.44
2022-12-25T04:38:05.389Z,1007.49
2022-12-25T04:39:05.390Z,1007.53
2022-12-25T04:40:05.389Z,1007.52
2022-12-25T04:41:05.369Z,1007.52
2022-12-25T04:42:05.347Z,1007.52
2022-12-25T04:43:05.337Z,1007.49
2022-12-25T04:44:05.326Z,1007.53
2022-12-25T04:45:05.370Z,1007.50
2022-12-25T04:46:05.353Z,1007.52
2022-12-25T04:47:11.015Z,1007.47
2022-12-25T04:48:05.288Z,1007.48
2022-12-25T04:49:05.266Z,1007.49
2022-12-25T04:50:05.282Z,1007.49
2022-12-25T04:51:05.245Z,1007.48
2022-12-25T04:52:05.251Z,1007.45
2022-12-25T04:53:05.225Z,1007.45
2022-12-25T04:54:05.240Z,1007.40
2022-12-25T04:55:05.227Z,1007.37
2022-12-25T04:56:05.194Z,1007.35
2022-12-25T04:57:05.178Z,1007.39
2022-12-25T04:58:05.171Z,1007.42
2022-12-25T04:59:05.155Z,1007.47
2022-12-25T05:00:05.178Z,1007.44
2022-12-25T05:01:05.141Z,1007.50
2022-12-25T05:02:05.257Z,1007.49
2022-12-25T05:03:05.198Z,1007.50
2022-12-25T05:04:05.110Z,1007.52
2022-12-25T05:05:05.133Z,1007.50
2022-12-25T05:06:05.080Z,1007.52
2022-12-25T05:07:05.066Z,1007.51
2022-12-25T05:08:05.060Z,1007.50
2022-12-25T05:09:05.047Z,1007.53
2022-12-25T05:10:05.063Z,1007.50
2022-12-25T05:11:05.024Z,1007.55
2022-12-25T05:12:05.024Z,1007.55
2022-12-25T05:13:05.018Z,1007.50
2022-12-25T05:14:04.992Z,1007.55
2022-12-25T05:15:05.011Z,1007.51
2022-12-25T05:16:04.997Z,1007.57
2022-12-25T05:17:04.961Z,1007.54
2022-12-25T05:18:04.955Z,1007.49
2022-12-25T05:19:04.934Z,1007.56
2022-12-25T05:20:04.930Z,1007.55
2022-12-25T05:21:04.934Z,1007.54
2022-12-25T05:22:04.905Z,1007.53
2022-12-25T05:23:04.914Z,1007.54
2022-12-25T05:24:04.886Z,1007.54
2022-12-25T05:25:04.868Z,1007.53
2022-12-25T05:26:04.900Z,1007.51
2022-12-25T05:27:04.843Z,1007.55
2022-12-25T05:28:04.848Z,1007.52
2022-12-25T05:29:04.825Z,1007.52
2022-12-25T05:30:04.821Z,1007.49
2022-12-25T05:31:04.857Z,1007.44
2022-12-25T05:32:04.794Z,1007.45
2022-12-25T05:33:04.785Z,1007.41
2022-12-25T05:34:04.771Z,1007.44
2022-12-25T05:35:04.775Z,1007.43
2022-12-25T05:36:04.776Z,1007.44
2022-12-25T05:37:04.747Z,1007.43
2022-12-25T05:38:04.733Z,1007.40
2022-12-25T05:39:04.714Z,1007.40
2022-12-25T05:40:04.702Z,1007.42
2022-12-25T05:41:04.717Z,1007.41
2022-12-25T05:42:04.682Z,1007.43
2022-12-25T05:43:04.673Z,1007.43
2022-12-25T05:44:04.659Z,1007.41
2022-12-25T05:45:04.764Z,1007.39
2022-12-25T05:46:04.759Z,1007.36
2022-12-25T05:47:04.724Z,1007.38
2022-12-25T05:48:04.607Z,1007.35
2022-12-25T05:49:04.621Z,1007.29
2022-12-25T05:50:04.615Z,1007.33
2022-12-25T05:51:04.603Z,1007.34
2022-12-25T05:52:04.566Z,1007.28
2022-12-25T05:53:08.388Z,1007.28
2022-12-25T05:54:04.545Z,1007.27
2022-12-25T05:55:04.575Z,1007.24
2022-12-25T05:56:04.549Z,1007.24
2022-12-25T05:57:04.516Z,1007.24
2022-12-25T05:58:04.503Z,1007.21
2022-12-25T05:59:04.492Z,1007.16
2022-12-25T06:00:04.476Z,1007.16
2022-12-25T06:01:04.492Z,1007.16
2022-12-25T06:02:04.606Z,1007.15
2022-12-25T06:03:04.534Z,1007.18
2022-12-25T06:04:08.538Z,1007.18
2022-12-25T06:05:04.429Z,1007.16
2022-12-25T06:06:04.435Z,1007.07
2022-12-25T06:07:04.413Z,1007.10
2022-12-25T06:08:04.395Z,1007.08
2022-12-25T06:09:04.400Z,1007.06
2022-12-25T06:10:04.369Z,1007.04
2022-12-25T06:11:04.377Z,1007.06
2022-12-25T06:12:04.345Z,1007.11
2022-12-25T06:13:04.342Z,1007.17
2022-12-25T06:14:04.331Z,1007.15
2022-12-25T06:15:04.314Z,1007.21
2022-12-25T06:16:04.355Z,1007.22
2022-12-25T06:17:04.373Z,1007.23
2022-12-25T06:18:04.279Z,1007.25
2022-12-25T06:19:04.266Z,1007.23
2022-12-25T06:20:04.257Z,1007.20
2022-12-25T06:21:04.271Z,1007.19
2022-12-25T06:22:04.246Z,1007.19
2022-12-25T06:23:04.226Z,1007.23
2022-12-25T06:24:04.274Z,1007.17
2022-12-25T06:25:04.207Z,1007.14
2022-12-25T06:26:04.212Z,1007.09
2022-12-25T06:27:04.173Z,1007.08
2022-12-25T06:28:04.169Z,1007.14
2022-12-25T06:29:04.155Z,1007.05
2022-12-25T06:30:04.143Z,1007.02
2022-12-25T06:31:04.203Z,1007.04
2022-12-25T06:32:04.173Z,1007.07
2022-12-25T06:33:04.108Z,1007.02
2022-12-25T06:34:04.107Z,1007.06
2022-12-25T06:35:04.113Z,1006.99
2022-12-25T06:36:04.098Z,1006.98
2022-12-25T06:37:04.068Z,1006.97
2022-12-25T06:38:04.061Z,1006.95
2022-12-25T06:39:04.042Z,1006.96
2022-12-25T06:40:04.063Z,1006.99
2022-12-25T06:41:04.019Z,1006.97
2022-12-25T06:42:04.016Z,1007.01
2022-12-25T06:43:03.997Z,1006.91
2022-12-25T06:44:03.993Z,1006.94
2022-12-25T06:45:03.977Z,1006.89
2022-12-25T06:46:04.049Z,1006.90
2022-12-25T06:47:03.959Z,1006.85
2022-12-25T06:48:03.941Z,1006.85
2022-12-25T06:49:03.945Z,1006.89
2022-12-25T06:50:03.918Z,1006.86
2022-12-25T06:51:03.934Z,1006.86
2022-12-25T06:52:03.896Z,1006.78
2022-12-25T06:53:03.894Z,1006.78
2022-12-25T06:54:04.070Z,1006.65
2022-12-25T06:55:03.871Z,1006.68
2022-12-25T06:56:03.878Z,1006.59
2022-12-25T06:57:03.848Z,1006.56
2022-12-25T06:58:03.834Z,1006.58
2022-12-25T06:59:03.819Z,1006.60
2022-12-25T07:00:03.809Z,1006.47
2022-12-25T07:01:03.881Z,1006.48
2022-12-25T07:02:03.858Z,1006.36
2022-12-25T07:03:03.899Z,1006.33
2022-12-25T07:04:03.773Z,1006.32
2022-12-25T07:05:03.769Z,1006.29
2022-12-25T07:06:03.763Z,1006.31
2022-12-25T07:07:08.721Z,1006.32
2022-12-25T07:08:03.722Z,1006.28
2022-12-25T07:09:03.720Z,1006.31
2022-12-25T07:10:03.699Z,1006.38
2022-12-25T07:11:03.717Z,1006.43
2022-12-25T07:12:03.671Z,1006.50
2022-12-25T07:13:03.673Z,1006.48
2022-12-25T07:14:03.649Z,1006.53
2022-12-25T07:15:03.653Z,1006.54
2022-12-25T07:16:03.698Z,1006.55
2022-12-25T07:17:03.630Z,1006.59
2022-12-25T07:18:03.608Z,1006.64
2022-12-25T07:19:03.620Z,1006.73
2022-12-25T07:20:03.601Z,1006.79
2022-12-25T07:21:03.595Z,1006.80
2022-12-25T07:22:03.569Z,1006.75
2022-12-25T07:23:03.572Z,1006.67
2022-12-25T07:24:03.554Z,1006.62
2022-12-25T07:25:03.564Z,1006.66
2022-12-25T07:26:03.568Z,1006.63
2022-12-25T07:27:03.520Z,1006.51
2022-12-25T07:28:03.515Z,1006.47
2022-12-25T07:29:03.491Z,1006.44
2022-12-25T07:30:03.471Z,1006.43
2022-12-25T07:31:03.490Z,1006.43
2022-12-25T07:32:03.552Z,1006.45
2022-12-25T07:33:03.437Z,1006.43
2022-12-25T07:34:03.427Z,1006.47
2022-12-25T07:35:03.418Z,1006.42
2022-12-25T07:36:03.425Z,1006.38
2022-12-25T07:37:03.401Z,1006.40
2022-12-25T07:38:03.387Z,1006.37
2022-12-25T07:39:03.375Z,1006.27
2022-12-25T07:40:03.360Z,1006.28
2022-12-25T07:41:03.372Z,1006.23
2022-12-25T07:42:03.338Z,1006.17
2022-12-25T07:43:03.329Z,1006.19
2022-12-25T07:44:03.316Z,1006.19
2022-12-25T07:45:03.311Z,1006.14
2022-12-25T07:46:03.445Z,1006.12
2022-12-25T07:47:03.299Z,1006.09
2022-12-25T07:48:05.808Z,1006.15
2022-12-25T07:49:03.263Z,1006.13
2022-12-25T07:50:03.272Z,1006.16
2022-12-25T07:51:03.313Z,1006.19
2022-12-25T07:52:03.241Z,1006.24
2022-12-25T07:53:03.220Z,1006.29
2022-12-25T07:54:03.218Z,1006.34
2022-12-25T07:55:03.192Z,1006.35
2022-12-25T07:56:03.222Z,1006.34
2022-12-25T07:57:03.179Z,1006.32
2022-12-25T07:58:03.170Z,1006.30
2022-12-25T07:59:03.156Z,1006.23
2022-12-25T08:00:03.137Z,1006.26
2022-12-25T08:01:03.285Z,1006.27
2022-12-25T08:02:03.422Z,1006.26
2022-12-25T08:03:03.314Z,1006.32
2022-12-25T08:04:03.275Z,1006.27
2022-12-25T08:05:03.090Z,1006.29
2022-12-25T08:06:03.095Z,1006.30
2022-12-25T08:07:03.061Z,1006.35
2022-12-25T08:08:03.055Z,1006.30
2022-12-25T08:09:03.041Z,1006.36
2022-12-25T08:10:03.026Z,1006.37
2022-12-25T08:11:03.045Z,1006.45
2022-12-25T08:12:03.006Z,1006.51
2022-12-25T08:13:04.715Z,1006.45
2022-12-25T08:14:03.004Z,1006.43
2022-12-25T08:15:02.969Z,1006.49
2022-12-25T08:16:03.010Z,1006.43
2022-12-25T08:17:02.995Z,1006.42
2022-12-25T08:18:02.938Z,1006.40
2022-12-25T08:19:02.931Z,1006.37
2022-12-25T08:20:02.919Z,1006.38
2022-12-25T08:21:02.922Z,1006.40
2022-12-25T08:22:02.897Z,1006.38
2022-12-25T08:23:02.885Z,1006.37
2022-12-25T08:24:02.872Z,1006.32
2022-12-25T08:25:02.872Z,1006.31
2022-12-25T08:26:05.294Z,1006.29
2022-12-25T08:27:02.843Z,1006.23
2022-12-25T08:28:02.840Z,1006.20
2022-12-25T08:29:02.826Z,1006.23
2022-12-25T08:30:02.809Z,1006.17
2022-12-25T08:31:02.864Z,1006.21
2022-12-25T08:32:02.818Z,1006.25
2022-12-25T08:33:02.774Z,1006.29
2022-12-25T08:34:02.819Z,1006.31
2022-12-25T08:35:02.759Z,1006.28
2022-12-25T08:36:02.760Z,1006.29
2022-12-25T08:37:02.736Z,1006.28
2022-12-25T08:38:02.726Z,1006.31
2022-12-25T08:39:03.584Z,1006.28
2022-12-25T08:40:02.699Z,1006.36
2022-12-25T08:41:02.710Z,1006.38
2022-12-25T08:42:02.757Z,1006.43
2022-12-25T08:43:02.692Z,1006.47
2022-12-25T08:44:02.700Z,1006.44
2022-12-25T08:45:02.639Z,1006.46
2022-12-25T08:46:02.727Z,1006.35
2022-12-25T08:47:02.616Z,1006.26
2022-12-25T08:48:02.603Z,1006.24
2022-12-25T08:49:02.597Z,1006.21
2022-12-25T08:50:02.618Z,1006.22
2022-12-25T08:51:02.634Z,1006.23
2022-12-25T08:52:02.578Z,1006.25
2022-12-25T08:53:02.563Z,1006.34
2022-12-25T08:54:02.556Z,1006.37
2022-12-25T08:55:02.539Z,1006.44
2022-12-25T08:56:02.559Z,1006.58
2022-12-25T08:57:03.175Z,1006.61
2022-12-25T08:58:02.505Z,1006.64
2022-12-25T08:59:02.488Z,1006.65
2022-12-25T09:00:02.470Z,1006.67
2022-12-25T09:01:02.520Z,1006.68
2022-12-25T09:02:02.526Z,1006.67
2022-12-25T09:03:02.725Z,1006.66
2022-12-25T09:04:02.430Z,1006.69
2022-12-25T09:05:02.416Z,1006.71
2022-12-25T09:06:02.436Z,1006.68
2022-12-25T09:07:02.395Z,1006.69
2022-12-25T09:08:02.376Z,1006.61
2022-12-25T09:09:02.370Z,1006.55
2022-12-25T09:10:02.356Z,1006.51
2022-12-25T09:11:02.401Z,1006.43
2022-12-25T09:12:02.380Z,1006.42
2022-12-25T09:13:02.333Z,1006.35
2022-12-25T09:14:02.307Z,1006.26
2022-12-25T09:15:02.314Z,1006.26
2022-12-25T09:16:02.351Z,1006.19
2022-12-25T09:17:02.282Z,1006.18
2022-12-25T09:18:02.268Z,1006.12
2022-12-25T09:19:02.271Z,1006.12
2022-12-25T09:20:02.274Z,1006.10
2022-12-25T09:21:02.263Z,1006.03
2022-12-25T09:22:02.240Z,1005.98
2022-12-25T09:23:02.227Z,1005.96
2022-12-25T09:24:02.201Z,1006.02
2022-12-25T09:25:02.287Z,1006.04
2022-12-25T09:26:02.197Z,1006.07
2022-12-25T09:27:02.178Z,1006.11
2022-12-25T09:28:02.170Z,1006.19
2022-12-25T09:29:02.160Z,1006.19
2022-12-25T09:30:02.144Z,1006.18
2022-12-25T09:31:02.224Z,1006.19
2022-12-25T09:32:02.145Z,1006.14
2022-12-25T09:33:02.097Z,1006.11
2022-12-25T09:34:02.087Z,1006.03
2022-12-25T09:35:02.092Z,1006.01
2022-12-25T09:36:02.109Z,1006.01
2022-12-25T09:37:02.073Z,1005.98
2022-12-25T09:38:02.042Z,1005.97
2022-12-25T09:39:02.040Z,1006.02
2022-12-25T09:40:02.039Z,1006.08
2022-12-25T09:41:02.052Z,1006.12
2022-12-25T09:42:02.008Z,1006.09
2022-12-25T09:43:01.986Z,1006.14
2022-12-25T09:44:01.975Z,1006.15
2022-12-25T09:45:01.973Z,1006.20
2022-12-25T09:46:02.069Z,1006.21
2022-12-25T09:47:01.997Z,1006.23
2022-12-25T09:48:01.949Z,1006.15
2022-12-25T09:49:01.919Z,1006.08
2022-12-25T09:50:01.941Z,1006.12
2022-12-25T09:51:01.928Z,1006.10
2022-12-25T09:52:01.898Z,1006.13
2022-12-25T09:53:01.882Z,1006.14
2022-12-25T09:54:01.901Z,1006.11
2022-12-25T09:55:01.863Z,1006.12
2022-12-25T09:56:01.883Z,1006.07
2022-12-25T09:57:01.833Z,1006.12
2022-12-25T09:58:01.828Z,1006.06
2022-12-25T09:59:01.808Z,1006.05
2022-12-25T10:00:01.802Z,1006.02
2022-12-25T10:01:01.808Z,1006.01
2022-12-25T10:02:01.903Z,1005.99
2022-12-25T10:03:02.050Z,1006.02
2022-12-25T10:04:01.759Z,1006.04
2022-12-25T10:05:01.758Z,1006.03
2022-12-25T10:06:01.760Z,1006.06
2022-12-25T10:07:01.727Z,1006.04
2022-12-25T10:08:01.723Z,1006.10
2022-12-25T10:09:01.700Z,1006.18
2022-12-25T10:10:01.693Z,1006.19
2022-12-25T10:11:01.700Z,1006.21
2022-12-25T10:12:01.692Z,1006.17
2022-12-25T10:13:01.666Z,1006.22
2022-12-25T10:14:01.656Z,1006.22
2022-12-25T10:15:01.634Z,1006.27
2022-12-25T10:16:01.693Z,1006.27
2022-12-25T10:17:01.622Z,1006.31
2022-12-25T10:18:01.615Z,1006.31
2022-12-25T10:19:01.592Z,1006.32
2022-12-25T10:20:01.590Z,1006.25
2022-12-25T10:21:01.602Z,1006.21
2022-12-25T10:22:01.557Z,1006.17
2022-12-25T10:23:01.561Z,1006.19
2022-12-25T10:24:01.529Z,1006.14
2022-12-25T10:25:01.527Z,1006.04
2022-12-25T10:26:01.553Z,1006.01
2022-12-25T10:27:01.502Z,1005.99
2022-12-25T10:28:01.487Z,1005.98
2022-12-25T10:29:01.484Z,1006.00
2022-12-25T10:30:01.499Z,1006.00
2022-12-25T10:31:01.541Z,1005.88
2022-12-25T10:32:01.466Z,1005.83
2022-12-25T10:33:01.432Z,1005.83
2022-12-25T10:34:01.417Z,1005.86
2022-12-25T10:35:01.413Z,1005.84
2022-12-25T10:36:01.414Z,1005.84
2022-12-25T10:37:01.391Z,1005.83
2022-12-25T10:38:01.384Z,1005.82
2022-12-25T10:39:01.367Z,1005.86
2022-12-25T10:40:01.372Z,1005.88
2022-12-25T10:41:01.368Z,1005.91
2022-12-25T10:42:01.333Z,1005.83
2022-12-25T10:43:01.324Z,1005.76
2022-12-25T10:44:01.305Z,1005.64
2022-12-25T10:45:01.307Z,1005.57
2022-12-25T10:46:01.350Z,1005.51
2022-12-25T10:47:01.312Z,1005.52
2022-12-25T10:48:06.829Z,1005.52
2022-12-25T10:49:01.252Z,1005.54
2022-12-25T10:50:01.240Z,1005.54
2022-12-25T10:51:01.248Z,1005.57
2022-12-25T10:52:01.220Z,1005.52
2022-12-25T10:53:01.207Z,1005.49
2022-12-25T10:54:01.201Z,1005.47
2022-12-25T10:55:01.187Z,1005.49
2022-12-25T10:56:01.221Z,1005.57
2022-12-25T10:57:01.188Z,1005.66
2022-12-25T10:58:01.162Z,1005.72
2022-12-25T10:59:01.137Z,1005.71
2022-12-25T11:00:01.131Z,1005.69
2022-12-25T11:01:01.144Z,1005.71
2022-12-25T11:02:01.247Z,1005.74
2022-12-25T11:03:01.537Z,1005.77
2022-12-25T11:04:01.141Z,1005.79
2022-12-25T11:05:01.072Z,1005.72
2022-12-25T11:06:01.114Z,1005.67
2022-12-25T11:07:01.050Z,1005.70
2022-12-25T11:08:01.044Z,1005.71
2022-12-25T11:09:01.032Z,1005.66
2022-12-25T11:10:05.337Z,1005.60
2022-12-25T11:11:01.041Z,1005.55
2022-12-25T11:12:01.005Z,1005.52
2022-12-25T11:13:00.982Z,1005.47
2022-12-25T11:14:00.988Z,1005.42
2022-12-25T11:15:00.961Z,1005.43
2022-12-25T11:16:01.031Z,1005.38
2022-12-25T11:17:00.943Z,1005.41
2022-12-25T11:18:00.955Z,1005.42
2022-12-25T11:19:00.930Z,1005.39
2022-12-25T11:20:00.970Z,1005.36
2022-12-25T11:21:00.914Z,1005.32
2022-12-25T11:22:00.935Z,1005.29
2022-12-25T11:23:00.872Z,1005.35
2022-12-25T11:24:00.888Z,1005.34
2022-12-25T11:25:00.870Z,1005.30
2022-12-25T11:26:00.867Z,1005.34
2022-12-25T11:27:00.829Z,1005.30
2022-12-25T11:28:00.829Z,1005.26
2022-12-25T11:29:00.833Z,1005.21
2022-12-25T11:30:00.809Z,1005.20
2022-12-25T11:31:00.903Z,1005.22
2022-12-25T11:32:00.781Z,1005.20
2022-12-25T11:33:00.771Z,1005.10
2022-12-25T11:34:00.760Z,1005.08
2022-12-25T11:35:00.742Z,1005.08
2022-12-25T11:36:00.761Z,1005.05
2022-12-25T11:37:00.723Z,1005.05
2022-12-25T11:38:00.725Z,1005.02
2022-12-25T11:39:00.698Z,1004.96
2022-12-25T11:40:00.689Z,1004.90
2022-12-25T11:41:00.708Z,1004.89
2022-12-25T11:42:00.675Z,1004.84
2022-12-25T11:43:07.678Z,1004.82
2022-12-25T11:44:00.671Z,1004.78
2022-12-25T11:45:00.632Z,1004.77
2022-12-25T11:46:00.635Z,1004.68
2022-12-25T11:47:00.686Z,1004.64
2022-12-25T11:48:00.606Z,1004.61
2022-12-25T11:49:00.618Z,1004.54
2022-12-25T11:50:01.241Z,1004.56
2022-12-25T11:51:00.611Z,1004.56
2022-12-25T11:52:00.554Z,1004.60
2022-12-25T11:53:00.544Z,1004.60
2022-12-25T11:54:00.531Z,1004.64
2022-12-25T11:55:00.527Z,1004.62
2022-12-25T11:56:00.526Z,1004.60
2022-12-25T11:57:00.500Z,1004.61
2022-12-25T11:58:00.482Z,1004.57
2022-12-25T11:59:00.474Z,1004.60
2022-12-25T12:00:00.475Z,1004.61
2022-12-25T12:01:00.479Z,1004.64
2022-12-25T12:02:00.609Z,1004.63
2022-12-25T12:03:00.683Z,1004.62
2022-12-25T12:04:00.465Z,1004.61
2022-12-25T12:05:00.410Z,1004.59